createdAt,value
2023-02-15T00:00:38.200Z,0.00
2023-02-15T00:01:38.655Z,0.01
2023-02-15T00:02:37.880Z,0.02
2023-02-15T00:03:38.109Z,0.02
2023-02-15T00:04:38.489Z,0.02
2023-02-15T00:05:37.788Z,0.02
2023-02-15T00:06:38.082Z,0.02
2023-02-15T00:07:39.453Z,0.00
2023-02-15T00:08:37.678Z,0.02
2023-02-15T00:09:38.048Z,0.00
2023-02-15T00:10:38.359Z,0.02
2023-02-15T00:11:37.649Z,0.02
2023-02-15T00:12:38.001Z,0.01
2023-02-15T00:13:37.758Z,0.00
2023-02-15T00:14:37.990Z,0.02
2023-02-15T00:15:38.333Z,0.01
2023-02-15T00:16:37.664Z,0.01
2023-02-15T00:17:37.899Z,0.00
2023-02-15T00:18:38.232Z,0.01
2023-02-15T00:19:38.522Z,0.00
2023-02-15T00:20:37.768Z,0.01
2023-02-15T00:21:38.078Z,0.01
2023-02-15T00:23:37.651Z,0.01
2023-02-15T00:24:37.988Z,0.05
2023-02-15T00:25:39.172Z,0.00
2023-02-15T00:26:37.542Z,0.02
2023-02-15T00:27:37.848Z,0.02
2023-02-15T00:28:38.193Z,0.01
2023-02-15T00:29:37.492Z,0.00
2023-02-15T00:30:37.828Z,0.01
2023-02-15T00:31:38.177Z,0.01
2023-02-15T00:32:37.472Z,0.02
2023-02-15T00:33:37.810Z,0.02
2023-02-15T00:34:37.402Z,0.01
2023-02-15T00:35:37.757Z,0.00
2023-02-15T00:36:38.077Z,0.00
2023-02-15T00:37:37.367Z,0.00
2023-02-15T00:38:37.726Z,0.01
2023-02-15T00:39:38.054Z,0.02
2023-02-15T00:40:37.358Z,0.02
2023-02-15T00:41:37.737Z,0.00
2023-02-15T00:42:38.067Z,0.02
2023-02-15T00:43:37.353Z,0.00
2023-02-15T00:44:37.771Z,0.00
2023-02-15T00:45:38.129Z,0.01
2023-02-15T00:46:37.417Z,0.00
2023-02-15T00:47:37.782Z,0.00
2023-02-15T00:48:38.118Z,0.02
2023-02-15T00:49:37.437Z,0.02
2023-02-15T00:50:37.902Z,0.00
2023-02-15T00:51:37.101Z,0.00
2023-02-15T00:52:37.473Z,0.02
2023-02-15T00:53:37.797Z,0.01
2023-02-15T00:54:37.091Z,0.01
2023-02-15T00:55:37.427Z,0.02
2023-02-15T00:56:37.827Z,0.02
2023-02-15T00:57:37.081Z,0.00
2023-02-15T00:58:37.408Z,0.00
2023-02-15T00:59:37.733Z,0.02
2023-02-15T01:00:37.033Z,0.01
2023-02-15T01:01:37.493Z,0.00
2023-02-15T01:02:37.764Z,0.02
2023-02-15T01:03:37.033Z,0.02
2023-02-15T01:04:37.419Z,0.02
2023-02-15T01:05:37.756Z,0.00
2023-02-15T01:06:37.051Z,0.02
2023-02-15T01:07:37.385Z,0.02
2023-02-15T01:08:37.766Z,0.00
2023-02-15T01:09:37.032Z,0.02
2023-02-15T01:10:37.404Z,0.01
2023-02-15T01:11:37.686Z,0.00
2023-02-15T01:12:36.985Z,0.00
2023-02-15T01:13:37.311Z,0.00
2023-02-15T01:14:38.146Z,0.00
2023-02-15T01:15:37.078Z,0.01
2023-02-15T01:16:37.329Z,0.02
2023-02-15T01:17:37.657Z,0.02
2023-02-15T01:18:36.977Z,0.00
2023-02-15T01:19:37.328Z,0.02
2023-02-15T01:20:37.794Z,0.00
2023-02-15T01:21:38.012Z,0.02
2023-02-15T01:22:37.318Z,0.02
2023-02-15T01:23:37.687Z,0.02
2023-02-15T01:24:36.992Z,0.02
2023-02-15T01:25:37.352Z,0.00
2023-02-15T01:26:36.712Z,0.02
2023-02-15T01:27:36.998Z,0.00
2023-02-15T01:28:37.330Z,0.02
2023-02-15T01:29:36.662Z,0.00
2023-02-15T01:30:36.992Z,0.01
2023-02-15T01:31:37.446Z,0.00
2023-02-15T01:32:36.623Z,0.02
2023-02-15T01:33:37.064Z,0.00
2023-02-15T01:34:37.332Z,0.02
2023-02-15T01:35:36.629Z,0.02
2023-02-15T01:36:37.000Z,0.02
2023-02-15T01:37:37.637Z,0.04
2023-02-15T01:38:36.632Z,0.00
2023-02-15T01:39:37.008Z,0.00
2023-02-15T01:40:37.392Z,0.02
2023-02-15T01:41:36.711Z,0.00
2023-02-15T01:42:37.031Z,0.06
2023-02-15T01:43:37.437Z,0.01
2023-02-15T01:44:36.764Z,0.00
2023-02-15T01:45:37.098Z,0.02
2023-02-15T01:46:36.478Z,0.00
2023-02-15T01:47:36.743Z,0.00
2023-02-15T01:48:37.134Z,0.01
2023-02-15T01:50:36.751Z,0.02
2023-02-15T01:51:37.096Z,0.00
2023-02-15T01:52:36.445Z,0.01
2023-02-15T01:53:36.747Z,0.00
2023-02-15T01:54:37.101Z,0.00
2023-02-15T01:55:36.425Z,0.01
2023-02-15T01:56:36.771Z,0.00
2023-02-15T01:57:37.136Z,0.06
2023-02-15T01:58:36.422Z,0.02
2023-02-15T01:59:36.799Z,0.00
2023-02-15T02:00:37.174Z,0.02
2023-02-15T02:01:36.438Z,0.00
2023-02-15T02:02:36.896Z,0.00
2023-02-15T02:03:37.104Z,0.00
2023-02-15T02:04:36.447Z,0.01
2023-02-15T02:05:36.810Z,0.02
2023-02-15T02:06:37.123Z,0.00
2023-02-15T02:07:36.447Z,0.00
2023-02-15T02:08:36.743Z,0.02
2023-02-15T02:09:36.073Z,0.00
2023-02-15T02:10:36.426Z,0.02
2023-02-15T02:11:36.794Z,0.00
2023-02-15T02:12:36.082Z,0.02
2023-02-15T02:13:36.433Z,0.01
2023-02-15T02:14:36.765Z,0.02
2023-02-15T02:15:36.160Z,0.01
2023-02-15T02:16:37.385Z,0.02
2023-02-15T02:17:36.802Z,0.00
2023-02-15T02:18:36.090Z,0.00
2023-02-15T02:19:36.452Z,0.01
2023-02-15T02:21:36.168Z,0.00
2023-02-15T02:22:36.466Z,0.02
2023-02-15T02:23:36.843Z,0.02
2023-02-15T02:24:36.166Z,0.01
2023-02-15T02:25:36.522Z,0.02
2023-02-15T02:26:35.822Z,0.01
2023-02-15T02:27:36.204Z,0.06
2023-02-15T02:28:36.543Z,0.02
2023-02-15T02:29:35.883Z,0.02
2023-02-15T02:30:36.360Z,0.01
2023-02-15T02:31:36.718Z,0.00
2023-02-15T02:32:35.910Z,0.01
2023-02-15T02:33:36.240Z,0.02
2023-02-15T02:34:36.623Z,0.00
2023-02-15T02:35:35.907Z,0.01
2023-02-15T02:36:36.286Z,0.02
2023-02-15T02:37:36.668Z,0.00
2023-02-15T02:38:35.977Z,0.01
2023-02-15T02:39:36.332Z,0.02
2023-02-15T02:40:35.692Z,0.02
2023-02-15T02:41:36.018Z,0.01
2023-02-15T02:42:36.404Z,0.02
2023-02-15T02:43:35.704Z,0.00
2023-02-15T02:44:36.102Z,0.00
2023-02-15T02:45:36.547Z,0.01
2023-02-15T02:46:35.896Z,0.02
2023-02-15T02:47:36.178Z,0.02
2023-02-15T02:48:36.533Z,0.00
2023-02-15T02:49:35.850Z,0.00
2023-02-15T02:50:36.274Z,0.00
2023-02-15T02:51:35.618Z,0.00
2023-02-15T02:52:35.954Z,0.02
2023-02-15T02:53:36.292Z,0.02
2023-02-15T02:54:35.638Z,0.02
2023-02-15T02:55:36.018Z,0.01
2023-02-15T02:56:36.378Z,0.01
2023-02-15T02:57:35.673Z,0.00
2023-02-15T02:58:36.072Z,0.02
2023-02-15T02:59:37.355Z,0.00
2023-02-15T03:00:36.670Z,0.02
2023-02-15T03:01:36.105Z,0.01
2023-02-15T03:02:36.472Z,0.06
2023-02-15T03:03:35.744Z,0.02
2023-02-15T03:04:36.074Z,0.00
2023-02-15T03:05:35.408Z,0.01
2023-02-15T03:06:35.756Z,0.00
2023-02-15T03:07:36.144Z,0.02
2023-02-15T03:09:35.833Z,0.06
2023-02-15T03:10:36.179Z,0.02
2023-02-15T03:11:35.479Z,0.01
2023-02-15T03:12:35.835Z,0.02
2023-02-15T03:13:36.221Z,0.00
2023-02-15T03:14:35.486Z,0.00
2023-02-15T03:15:35.860Z,0.02
2023-02-15T03:16:35.392Z,0.02
2023-02-15T03:17:35.543Z,0.02
2023-02-15T03:18:35.933Z,0.02
2023-02-15T03:19:35.267Z,0.00
2023-02-15T03:20:35.598Z,0.00
2023-02-15T03:21:36.944Z,0.01
2023-02-15T03:22:35.321Z,0.02
2023-02-15T03:23:35.687Z,0.01
2023-02-15T03:24:36.053Z,0.00
2023-02-15T03:25:35.368Z,0.01
2023-02-15T03:26:35.781Z,0.00
2023-02-15T03:27:36.034Z,0.00
2023-02-15T03:28:35.464Z,0.02
2023-02-15T03:29:35.829Z,0.00
2023-02-15T03:30:35.236Z,0.02
2023-02-15T03:31:35.757Z,0.00
2023-02-15T03:32:36.303Z,0.01
2023-02-15T03:33:35.278Z,0.00
2023-02-15T03:34:35.669Z,0.02
2023-02-15T03:35:34.984Z,0.00
2023-02-15T03:36:35.394Z,0.02
2023-02-15T03:37:35.730Z,0.02
2023-02-15T03:38:35.056Z,0.02
2023-02-15T03:39:35.411Z,0.02
2023-02-15T03:40:35.826Z,0.02
2023-02-15T03:41:35.160Z,0.02
2023-02-15T03:42:35.581Z,0.00
2023-02-15T03:43:35.829Z,0.02
2023-02-15T03:44:35.159Z,0.00
2023-02-15T03:45:35.514Z,0.02
2023-02-15T03:46:34.876Z,0.01
2023-02-15T03:47:35.169Z,0.00
2023-02-15T03:48:35.555Z,0.00
2023-02-15T03:49:34.867Z,0.00
2023-02-15T03:50:35.220Z,0.02
2023-02-15T03:51:35.698Z,0.02
2023-02-15T03:52:34.951Z,0.02
2023-02-15T03:53:35.292Z,0.01
2023-02-15T03:54:35.672Z,0.02
2023-02-15T03:55:34.952Z,0.00
2023-02-15T03:56:36.303Z,0.00
2023-02-15T03:57:35.587Z,0.02
2023-02-15T03:58:35.947Z,0.01
2023-02-15T03:59:36.313Z,0.02
2023-02-15T04:00:34.850Z,0.00
2023-02-15T04:01:36.003Z,0.00
2023-02-15T04:02:35.421Z,0.02
2023-02-15T04:03:34.728Z,0.01
2023-02-15T04:04:35.055Z,0.00
2023-02-15T04:05:35.472Z,0.02
2023-02-15T04:06:34.747Z,0.01
2023-02-15T04:07:35.053Z,0.02
2023-02-15T04:08:35.403Z,0.02
2023-02-15T04:09:34.725Z,0.02
2023-02-15T04:10:35.080Z,0.00
2023-02-15T04:11:35.443Z,0.02
2023-02-15T04:12:34.743Z,0.02
2023-02-15T04:13:35.143Z,0.00
2023-02-15T04:14:34.408Z,0.02
2023-02-15T04:15:34.778Z,0.00
2023-02-15T04:16:35.179Z,0.02
2023-02-15T04:17:34.478Z,0.02
2023-02-15T04:18:34.791Z,0.01
2023-02-15T04:19:35.181Z,0.02
2023-02-15T04:20:34.515Z,0.02
2023-02-15T04:21:34.891Z,0.01
2023-02-15T04:22:35.242Z,0.01
2023-02-15T04:23:34.550Z,0.01
2023-02-15T04:24:34.914Z,0.02
2023-02-15T04:25:34.270Z,0.01
2023-02-15T04:26:34.604Z,0.01
2023-02-15T04:27:34.968Z,0.00
2023-02-15T04:29:35.634Z,0.00
2023-02-15T04:30:35.013Z,0.00
2023-02-15T04:31:35.451Z,0.00
2023-02-15T04:32:35.664Z,0.02
2023-02-15T04:33:35.132Z,0.02
2023-02-15T04:34:34.412Z,0.02
2023-02-15T04:35:34.786Z,0.00
2023-02-15T04:36:35.127Z,0.02
2023-02-15T04:37:34.473Z,0.01
2023-02-15T04:38:34.828Z,0.02
2023-02-15T04:39:34.250Z,0.04
2023-02-15T04:40:34.515Z,0.02
2023-02-15T04:41:35.826Z,0.02
2023-02-15T04:42:34.218Z,0.01
2023-02-15T04:43:34.585Z,0.02
2023-02-15T04:44:35.041Z,0.02
2023-02-15T04:45:34.398Z,0.02
2023-02-15T04:46:35.646Z,0.01
2023-02-15T04:47:34.029Z,0.02
2023-02-15T04:48:34.367Z,0.00
2023-02-15T04:49:34.766Z,0.00
2023-02-15T04:50:34.186Z,0.00
2023-02-15T04:51:34.449Z,0.01
2023-02-15T04:52:34.840Z,0.00
2023-02-15T04:53:34.121Z,0.02
2023-02-15T04:54:35.432Z,0.01
2023-02-15T04:55:34.896Z,0.01
2023-02-15T04:56:34.186Z,0.02
2023-02-15T04:57:34.506Z,0.02
2023-02-15T04:58:34.761Z,0.01
2023-02-15T04:59:34.152Z,0.02
2023-02-15T05:00:35.491Z,0.02
2023-02-15T05:01:33.916Z,0.02
2023-02-15T05:02:34.291Z,0.02
2023-02-15T05:03:34.625Z,0.02
2023-02-15T05:04:33.993Z,0.02
2023-02-15T05:05:34.386Z,0.02
2023-02-15T05:06:34.716Z,0.02
2023-02-15T05:07:34.023Z,0.02
2023-02-15T05:08:34.442Z,0.02
2023-02-15T05:09:34.675Z,0.01
2023-02-15T05:10:34.058Z,0.00
2023-02-15T05:11:35.396Z,0.01
2023-02-15T05:12:33.841Z,0.00
2023-02-15T05:13:35.065Z,0.01
2023-02-15T05:14:34.496Z,0.00
2023-02-15T05:15:34.800Z,0.01
2023-02-15T05:16:35.178Z,0.02
2023-02-15T05:17:34.596Z,0.00
2023-02-15T05:18:34.847Z,0.00
2023-02-15T05:19:34.279Z,0.00
2023-02-15T05:20:33.730Z,0.01
2023-02-15T05:21:34.083Z,0.01
2023-02-15T05:22:35.316Z,0.00
2023-02-15T05:23:33.750Z,0.01
2023-02-15T05:24:35.041Z,0.00
2023-02-15T05:25:34.459Z,0.00
2023-02-15T05:26:34.787Z,0.01
2023-02-15T05:27:34.173Z,0.01
2023-02-15T05:28:33.536Z,0.01
2023-02-15T05:29:33.965Z,0.05
2023-02-15T05:30:35.483Z,0.05
2023-02-15T05:31:33.978Z,0.02
2023-02-15T05:32:35.123Z,0.01
2023-02-15T05:33:34.372Z,0.01
2023-02-15T05:34:33.726Z,0.00
2023-02-15T05:35:34.233Z,0.02
2023-02-15T05:36:34.373Z,0.02
2023-02-15T05:37:33.812Z,0.02
2023-02-15T05:38:35.105Z,0.02
2023-02-15T05:39:33.502Z,0.01
2023-02-15T05:40:33.799Z,0.01
2023-02-15T05:41:34.272Z,0.01
2023-02-15T05:42:33.477Z,0.01
2023-02-15T05:43:33.817Z,0.01
2023-02-15T05:44:34.203Z,0.01
2023-02-15T05:45:34.464Z,0.01
2023-02-15T05:46:33.949Z,0.02
2023-02-15T05:47:34.573Z,0.01
2023-02-15T05:48:33.528Z,0.01
2023-02-15T05:49:33.889Z,0.01
2023-02-15T05:50:33.203Z,0.01
2023-02-15T05:51:34.519Z,0.02
2023-02-15T05:52:33.935Z,0.02
2023-02-15T05:53:33.299Z,0.08
2023-02-15T05:54:34.614Z,0.02
2023-02-15T05:55:34.068Z,0.02
2023-02-15T05:56:34.409Z,0.06
2023-02-15T05:57:33.758Z,0.08
2023-02-15T05:58:33.068Z,0.04
2023-02-15T05:59:34.354Z,0.04
2023-02-15T06:00:38.218Z,0.05
2023-02-15T06:01:33.117Z,0.05
2023-02-15T06:02:33.542Z,0.05
2023-02-15T06:03:33.977Z,0.05
2023-02-15T06:04:33.234Z,0.08
2023-02-15T06:05:33.604Z,0.09
2023-02-15T06:06:32.959Z,0.08
2023-02-15T06:07:33.320Z,0.12
2023-02-15T06:08:33.678Z,0.14
2023-02-15T06:09:33.047Z,0.16
2023-02-15T06:10:33.374Z,0.18
2023-02-15T06:11:33.730Z,0.24
2023-02-15T06:12:33.109Z,0.30
2023-02-15T06:13:33.440Z,0.34
2023-02-15T06:14:33.887Z,0.41
2023-02-15T06:15:33.149Z,0.50
2023-02-15T06:16:33.591Z,0.60
2023-02-15T06:17:32.853Z,0.69
2023-02-15T06:18:33.225Z,0.82
2023-02-15T06:19:33.581Z,0.96
2023-02-15T06:20:32.949Z,1.16
2023-02-15T06:21:33.315Z,1.35
2023-02-15T06:22:33.697Z,1.59
2023-02-15T06:23:33.007Z,1.85
2023-02-15T06:24:33.335Z,2.14
2023-02-15T06:25:35.799Z,2.51
2023-02-15T06:26:33.959Z,2.90
2023-02-15T06:27:34.345Z,3.31
2023-02-15T06:28:32.744Z,3.94
2023-02-15T06:29:33.085Z,4.59
2023-02-15T06:30:33.483Z,5.33
2023-02-15T06:31:33.080Z,6.16
2023-02-15T06:32:33.189Z,7.16
2023-02-15T06:33:33.560Z,8.26
2023-02-15T06:34:33.819Z,9.46
2023-02-15T06:35:33.208Z,10.84
2023-02-15T06:36:33.529Z,12.34
2023-02-15T06:37:32.958Z,13.91
2023-02-15T06:38:34.267Z,15.64
2023-02-15T06:39:33.604Z,17.54
2023-02-15T06:40:33.023Z,19.53
2023-02-15T06:41:33.395Z,21.75
2023-02-15T06:42:32.743Z,24.00
2023-02-15T06:43:33.189Z,26.40
2023-02-15T06:44:32.482Z,28.88
2023-02-15T06:45:32.839Z,31.62
2023-02-15T06:46:34.388Z,34.50
2023-02-15T06:47:32.574Z,37.42
2023-02-15T06:48:35.224Z,43.96
2023-02-15T06:49:33.344Z,50.54
2023-02-15T06:50:32.680Z,58.83
2023-02-15T06:51:34.014Z,66.60
2023-02-15T06:52:33.358Z,76.11
2023-02-15T06:53:32.805Z,85.05
2023-02-15T06:54:33.190Z,94.01
2023-02-15T06:55:32.507Z,103.63
2023-02-15T06:56:32.828Z,114.16
2023-02-15T06:57:33.199Z,123.82
2023-02-15T06:58:32.509Z,133.21
2023-02-15T06:59:32.906Z,142.85
2023-02-15T07:00:32.346Z,148.19
2023-02-15T07:01:32.614Z,155.14
2023-02-15T07:02:32.943Z,163.15
2023-02-15T07:03:32.277Z,168.18
2023-02-15T07:04:32.762Z,175.53
2023-02-15T07:05:33.094Z,185.03
2023-02-15T07:06:32.401Z,189.80
2023-02-15T07:07:32.764Z,203.67
2023-02-15T07:08:33.065Z,215.61
2023-02-15T07:09:33.424Z,224.89
2023-02-15T07:10:32.848Z,236.59
2023-02-15T07:11:32.225Z,247.69
2023-02-15T07:12:32.550Z,259.73
2023-02-15T07:13:32.908Z,271.99
2023-02-15T07:14:32.246Z,283.04
2023-02-15T07:15:32.590Z,301.04
2023-02-15T07:16:33.019Z,307.32
2023-02-15T07:17:35.740Z,319.51
2023-02-15T07:18:32.686Z,332.71
2023-02-15T07:19:31.971Z,343.78
2023-02-15T07:20:32.361Z,355.89
2023-02-15T07:21:32.711Z,364.05
2023-02-15T07:22:32.107Z,375.59
2023-02-15T07:23:32.382Z,383.01
2023-02-15T07:24:33.381Z,391.08
2023-02-15T07:25:32.091Z,401.93
2023-02-15T07:26:32.440Z,410.07
2023-02-15T07:27:32.888Z,415.26
2023-02-15T07:28:32.100Z,422.15
2023-02-15T07:29:32.476Z,427.42
2023-02-15T07:30:32.041Z,433.74
2023-02-15T07:31:32.176Z,440.34
2023-02-15T07:32:32.619Z,445.55
2023-02-15T07:33:31.920Z,452.46
2023-02-15T07:34:32.239Z,464.39
2023-02-15T07:35:33.574Z,469.34
2023-02-15T07:36:31.929Z,475.00
2023-02-15T07:37:32.315Z,484.73
2023-02-15T07:38:32.820Z,496.48
2023-02-15T07:39:32.932Z,498.96
2023-02-15T07:40:32.341Z,508.55
2023-02-15T07:41:31.641Z,516.55
2023-02-15T07:42:32.011Z,521.36
2023-02-15T07:43:32.360Z,529.16
2023-02-15T07:44:31.712Z,535.01
2023-02-15T07:45:32.027Z,539.24
2023-02-15T07:46:32.428Z,544.37
2023-02-15T07:47:31.742Z,546.63
2023-02-15T07:48:32.075Z,553.28
2023-02-15T07:49:32.796Z,557.11
2023-02-15T07:50:31.794Z,555.29
2023-02-15T07:51:32.157Z,541.11
2023-02-15T07:52:32.523Z,620.59
2023-02-15T07:53:31.830Z,608.61
2023-02-15T07:54:32.191Z,602.18
2023-02-15T07:55:31.648Z,593.86
2023-02-15T07:56:33.614Z,581.57
2023-02-15T07:57:32.254Z,573.87
2023-02-15T07:58:31.571Z,570.90
2023-02-15T07:59:32.002Z,569.59
2023-02-15T08:00:32.316Z,572.50
2023-02-15T08:01:31.650Z,573.39
2023-02-15T08:02:32.132Z,571.44
2023-02-15T08:03:32.439Z,571.15
2023-02-15T08:04:31.701Z,565.43
2023-02-15T08:05:32.056Z,565.97
2023-02-15T08:06:31.481Z,555.10
2023-02-15T08:07:31.775Z,550.72
2023-02-15T08:08:32.160Z,542.16
2023-02-15T08:09:32.388Z,542.28
2023-02-15T08:10:33.776Z,532.54
2023-02-15T08:11:32.186Z,530.55
2023-02-15T08:12:31.448Z,535.17
2023-02-15T08:13:31.757Z,543.06
2023-02-15T08:14:32.159Z,550.22
2023-02-15T08:15:32.453Z,557.05
2023-02-15T08:16:31.852Z,569.74
2023-02-15T08:17:32.154Z,576.57
2023-02-15T08:18:31.464Z,585.14
2023-02-15T08:19:31.814Z,589.92
2023-02-15T08:20:32.136Z,596.53
2023-02-15T08:21:31.451Z,601.61
2023-02-15T08:22:31.918Z,603.12
2023-02-15T08:23:32.022Z,606.78
2023-02-15T08:24:31.439Z,608.77
2023-02-15T08:25:32.727Z,613.55
2023-02-15T08:26:31.086Z,621.64
2023-02-15T08:27:31.436Z,643.59
2023-02-15T08:28:31.853Z,636.73
2023-02-15T08:29:32.001Z,636.08
2023-02-15T08:30:35.110Z,642.57
2023-02-15T08:31:31.832Z,648.02
2023-02-15T08:32:31.028Z,646.11
2023-02-15T08:33:31.318Z,653.13
2023-02-15T08:34:31.727Z,659.95
2023-02-15T08:35:30.948Z,666.90
2023-02-15T08:36:31.273Z,668.88
2023-02-15T08:37:32.548Z,676.36
2023-02-15T08:38:33.589Z,684.23
2023-02-15T08:39:31.173Z,686.20
2023-02-15T08:40:31.569Z,690.90
2023-02-15T08:41:31.874Z,691.64
2023-02-15T08:42:32.050Z,699.86
2023-02-15T08:43:32.359Z,703.80
2023-02-15T08:44:31.724Z,707.29
2023-02-15T08:45:31.035Z,702.66
2023-02-15T08:46:31.411Z,705.16
2023-02-15T08:47:32.608Z,719.32
2023-02-15T08:48:30.932Z,728.29
2023-02-15T08:49:31.303Z,733.34
2023-02-15T08:50:32.523Z,738.08
2023-02-15T08:51:30.876Z,742.94
2023-02-15T08:52:31.163Z,744.89
2023-02-15T08:53:31.535Z,753.46
2023-02-15T08:54:30.775Z,759.34
2023-02-15T08:55:31.088Z,760.23
2023-02-15T08:56:31.458Z,761.50
2023-02-15T08:57:30.731Z,769.65
2023-02-15T08:58:31.022Z,773.91
2023-02-15T08:59:32.308Z,779.08
2023-02-15T09:00:31.628Z,783.88
2023-02-15T09:01:31.047Z,790.46
2023-02-15T09:02:31.544Z,794.24
2023-02-15T09:03:31.564Z,796.14
2023-02-15T09:04:31.907Z,800.59
2023-02-15T09:05:32.210Z,802.06
2023-02-15T09:06:30.515Z,807.81
2023-02-15T09:07:30.883Z,810.43
2023-02-15T09:08:31.228Z,814.77
2023-02-15T09:09:31.450Z,820.83
2023-02-15T09:10:31.788Z,822.77
2023-02-15T09:11:31.183Z,829.99
2023-02-15T09:12:30.458Z,831.59
2023-02-15T09:13:30.885Z,835.45
2023-02-15T09:14:32.037Z,838.70
2023-02-15T09:15:31.424Z,842.07
2023-02-15T09:16:31.803Z,845.17
2023-02-15T09:17:31.063Z,849.17
2023-02-15T09:18:31.503Z,849.61
2023-02-15T09:19:31.594Z,851.33
2023-02-15T09:20:31.944Z,853.50
2023-02-15T09:21:31.286Z,853.42
2023-02-15T09:22:31.598Z,861.10
2023-02-15T09:23:30.911Z,862.34
2023-02-15T09:24:31.246Z,865.57
2023-02-15T09:25:30.496Z,866.38
2023-02-15T09:26:31.762Z,868.22
2023-02-15T09:27:31.124Z,873.12
2023-02-15T09:28:30.395Z,875.61
2023-02-15T09:29:30.699Z,876.96
2023-02-15T09:30:31.183Z,876.68
2023-02-15T09:31:31.464Z,883.52
2023-02-15T09:32:31.573Z,884.93
2023-02-15T09:33:31.911Z,888.10
2023-02-15T09:34:30.244Z,889.76
2023-02-15T09:35:31.518Z,890.74
2023-02-15T09:36:31.880Z,896.83
2023-02-15T09:37:31.064Z,897.35
2023-02-15T09:38:30.424Z,900.04
2023-02-15T09:39:30.720Z,902.80
2023-02-15T09:40:31.029Z,904.66
2023-02-15T09:41:31.229Z,908.78
2023-02-15T09:42:30.799Z,911.03
2023-02-15T09:43:31.897Z,915.45
2023-02-15T09:44:31.154Z,915.83
2023-02-15T09:45:31.424Z,918.78
2023-02-15T09:46:31.733Z,920.16
2023-02-15T09:47:30.003Z,921.95
2023-02-15T09:48:30.382Z,925.05
2023-02-15T09:49:30.638Z,928.34
2023-02-15T09:50:30.889Z,928.44
2023-02-15T09:51:31.096Z,932.54
2023-02-15T09:52:30.457Z,934.29
2023-02-15T09:53:31.128Z,937.49
2023-02-15T09:54:29.976Z,937.46
2023-02-15T09:55:30.269Z,940.59
2023-02-15T09:56:30.550Z,942.13
2023-02-15T09:57:30.862Z,945.45
2023-02-15T09:58:30.055Z,948.01
2023-02-15T09:59:30.456Z,949.37
2023-02-15T10:00:30.626Z,951.77
2023-02-15T10:01:29.914Z,955.88
2023-02-15T10:02:30.159Z,959.57
2023-02-15T10:03:30.418Z,961.98
2023-02-15T10:04:30.779Z,961.70
2023-02-15T10:05:29.966Z,965.06
2023-02-15T10:06:31.152Z,968.57
2023-02-15T10:07:31.458Z,968.17
2023-02-15T10:08:30.711Z,974.57
2023-02-15T10:09:30.997Z,974.82
2023-02-15T10:10:30.370Z,976.84
2023-02-15T10:11:30.578Z,978.57
2023-02-15T10:12:30.808Z,981.33
2023-02-15T10:13:31.078Z,983.91
2023-02-15T10:14:31.352Z,987.53
2023-02-15T10:15:29.643Z,990.48
2023-02-15T10:16:30.017Z,991.88
2023-02-15T10:17:30.187Z,993.33
2023-02-15T10:18:31.447Z,995.21
2023-02-15T10:19:29.713Z,994.72
2023-02-15T10:20:30.938Z,998.36
2023-02-15T10:21:30.254Z,998.66
2023-02-15T10:22:31.476Z,997.68
2023-02-15T10:23:30.703Z,999.34
2023-02-15T10:24:30.979Z,999.99
2023-02-15T10:25:31.247Z,1001.76
2023-02-15T10:26:29.565Z,1003.21
2023-02-15T10:27:29.828Z,986.76
2023-02-15T10:28:31.032Z,1006.68
2023-02-15T10:29:31.373Z,1005.19
2023-02-15T10:30:32.168Z,1011.03
2023-02-15T10:31:30.078Z,1012.65
2023-02-15T10:32:31.174Z,1012.08
2023-02-15T10:33:29.427Z,1014.13
2023-02-15T10:34:29.698Z,1015.90
2023-02-15T10:35:29.993Z,1016.25
2023-02-15T10:36:30.297Z,1017.53
2023-02-15T10:37:29.524Z,1017.65
2023-02-15T10:38:29.815Z,1019.86
2023-02-15T10:39:30.066Z,1021.77
2023-02-15T10:40:29.276Z,1021.37
2023-02-15T10:41:29.557Z,1022.97
2023-02-15T10:42:29.816Z,1024.14
2023-02-15T10:43:30.076Z,1027.06
2023-02-15T10:44:29.329Z,1027.59
2023-02-15T10:45:30.568Z,1027.80
2023-02-15T10:46:29.825Z,1023.89
2023-02-15T10:47:30.105Z,1029.18
2023-02-15T10:48:29.274Z,1031.33
2023-02-15T10:49:29.529Z,1033.37
2023-02-15T10:50:29.779Z,1035.00
2023-02-15T10:51:30.041Z,1038.84
2023-02-15T10:52:29.267Z,1039.68
2023-02-15T10:53:29.587Z,1039.43
2023-02-15T10:54:29.778Z,1027.21
2023-02-15T10:55:30.967Z,1018.47
2023-02-15T10:56:30.172Z,1025.19
2023-02-15T10:57:29.493Z,1019.70
2023-02-15T10:58:29.746Z,1011.92
2023-02-15T10:59:29.982Z,1031.39
2023-02-15T11:00:29.201Z,1036.48
2023-02-15T11:01:29.425Z,1048.17
2023-02-15T11:02:29.656Z,1064.64
2023-02-15T11:03:29.941Z,1063.07
2023-02-15T11:04:29.177Z,1062.64
2023-02-15T11:05:31.470Z,1067.50
2023-02-15T11:06:29.651Z,1065.78
2023-02-15T11:07:30.847Z,1063.67
2023-02-15T11:08:29.151Z,1062.26
2023-02-15T11:09:29.398Z,1061.41
2023-02-15T11:10:29.613Z,1063.19
2023-02-15T11:11:29.936Z,1065.72
2023-02-15T11:12:29.056Z,1057.49
2023-02-15T11:13:29.306Z,1036.99
2023-02-15T11:14:29.608Z,1033.00
2023-02-15T11:15:29.894Z,1016.78
2023-02-15T11:16:29.032Z,1012.04
2023-02-15T11:17:29.289Z,991.94
2023-02-15T11:18:29.580Z,998.16
2023-02-15T11:19:29.815Z,980.38
2023-02-15T11:20:30.072Z,982.68
2023-02-15T11:21:29.234Z,984.62
2023-02-15T11:22:29.517Z,990.87
2023-02-15T11:23:29.741Z,1002.71
2023-02-15T11:24:30.002Z,1000.78
2023-02-15T11:25:29.199Z,982.77
2023-02-15T11:26:29.438Z,966.14
2023-02-15T11:27:29.745Z,994.51
2023-02-15T11:28:28.953Z,1013.18
2023-02-15T11:29:29.152Z,1019.73
2023-02-15T11:30:29.425Z,1039.43
2023-02-15T11:31:29.784Z,1039.80
2023-02-15T11:32:28.829Z,1034.32
2023-02-15T11:33:29.061Z,1055.93
2023-02-15T11:34:29.306Z,1067.74
2023-02-15T11:35:30.523Z,1079.44
2023-02-15T11:36:28.757Z,1077.64
2023-02-15T11:37:29.114Z,1075.19
2023-02-15T11:38:29.791Z,1066.44
2023-02-15T11:39:29.486Z,1071.04
2023-02-15T11:40:28.727Z,1057.10
2023-02-15T11:41:28.943Z,1047.31
2023-02-15T11:42:29.156Z,1040.48
2023-02-15T11:43:29.369Z,1059.64
2023-02-15T11:44:28.553Z,1067.39
2023-02-15T11:45:28.777Z,1066.02
2023-02-15T11:46:29.092Z,1063.76
2023-02-15T11:47:29.244Z,1061.89
2023-02-15T11:48:28.448Z,1045.62
2023-02-15T11:49:29.622Z,1050.07
2023-02-15T11:50:28.927Z,1050.48
2023-02-15T11:51:29.210Z,1042.56
2023-02-15T11:52:29.386Z,1050.65
2023-02-15T11:53:29.485Z,1050.42
2023-02-15T11:54:28.739Z,1054.35
2023-02-15T11:55:28.964Z,1056.36
2023-02-15T11:56:29.279Z,1055.33
2023-02-15T11:57:28.352Z,1051.92
2023-02-15T11:58:28.610Z,1056.17
2023-02-15T11:59:28.814Z,1049.45
2023-02-15T12:00:29.005Z,1054.41
2023-02-15T12:01:30.213Z,1043.48
2023-02-15T12:02:28.547Z,1045.68
2023-02-15T12:03:28.730Z,1050.60
2023-02-15T12:04:28.919Z,1049.76
2023-02-15T12:05:29.129Z,1053.73
2023-02-15T12:06:28.340Z,1051.08
2023-02-15T12:07:29.514Z,1050.90
2023-02-15T12:08:28.804Z,1056.05
2023-02-15T12:09:30.240Z,1057.12
2023-02-15T12:10:28.248Z,1058.53
2023-02-15T12:11:28.474Z,1056.99
2023-02-15T12:12:28.703Z,1058.79
2023-02-15T12:13:28.939Z,1059.93
2023-02-15T12:14:28.104Z,1057.73
2023-02-15T12:15:28.863Z,1056.33
2023-02-15T12:16:28.637Z,1058.16
2023-02-15T12:17:28.783Z,1053.21
2023-02-15T12:18:27.960Z,1057.33
2023-02-15T12:19:29.154Z,1054.99
2023-02-15T12:20:28.512Z,1054.19
2023-02-15T12:21:28.618Z,1055.19
2023-02-15T12:22:28.783Z,1052.36
2023-02-15T12:23:27.939Z,1055.62
2023-02-15T12:24:28.144Z,1047.86
2023-02-15T12:25:28.488Z,1040.08
2023-02-15T12:26:28.534Z,1034.87
2023-02-15T12:27:28.783Z,1033.37
2023-02-15T12:28:27.919Z,1046.51
2023-02-15T12:29:28.140Z,1044.65
2023-02-15T12:30:28.345Z,1045.48
2023-02-15T12:31:28.694Z,1045.59
2023-02-15T12:32:28.789Z,1048.81
2023-02-15T12:33:28.029Z,1049.55
2023-02-15T12:34:28.183Z,1060.56
2023-02-15T12:35:28.407Z,1061.77
2023-02-15T12:36:28.609Z,1055.57
2023-02-15T12:37:27.801Z,1062.93
2023-02-15T12:38:28.020Z,1068.38
2023-02-15T12:39:28.310Z,1073.05
2023-02-15T12:40:30.283Z,1065.30
2023-02-15T12:41:28.658Z,1075.02
2023-02-15T12:42:27.847Z,1078.93
2023-02-15T12:43:28.035Z,1076.91
2023-02-15T12:44:28.259Z,1076.44
2023-02-15T12:45:28.551Z,1082.48
2023-02-15T12:46:27.716Z,1076.87
2023-02-15T12:47:29.290Z,1078.07
2023-02-15T12:48:28.114Z,1061.33
2023-02-15T12:49:28.346Z,1065.58
2023-02-15T12:50:34.601Z,1071.28
2023-02-15T12:51:28.786Z,1072.08
2023-02-15T12:52:28.978Z,1067.02
2023-02-15T12:53:28.210Z,1050.07
2023-02-15T12:54:28.380Z,1038.16